Nora Springs, Iowa
Current Conditions -  °F | °C
As of 8:53 PM on Saturday 25 Oct 2014 (Local Time) from KMCW Reporting Station
Clear Clear  
Wind Chill: 40°   Ceiling: Unl
Heat Index: 44°   Visibility: 10mi
Dew Point: 34°   Wind: 7mph
Humidity: 68%   Direction: 330°NNW
Pressure: 30.08"   Gusts: NA
Location:  43.14°N, 93°W
Report Text: KMCW 260153Z AUTO 33006KT 10SM CLR 07/01 A3008 RMK AO2 SLP187 T00670011
Loading
Personal Weather Stations






























Interactive Weather Map
Tropical Storm Tracking
New forecast layout! Learn more

10-Day Weather Forecast

Advertisements
Track Severe Weather on mobile